createdAt,value
2018-09-18T00:00:08.043Z,1007.97
2018-09-18T00:01:08.001Z,1007.96
2018-09-18T00:02:07.984Z,1007.98
2018-09-18T00:03:07.966Z,1007.97
2018-09-18T00:04:07.949Z,1007.94
2018-09-18T00:05:07.933Z,1007.93
2018-09-18T00:06:07.921Z,1007.92
2018-09-18T00:07:07.899Z,1007.91
2018-09-18T00:08:07.881Z,1007.92
2018-09-18T00:09:07.865Z,1007.90
2018-09-18T00:10:07.852Z,1007.93
2018-09-18T00:11:07.835Z,1007.90
2018-09-18T00:12:07.821Z,1007.89
2018-09-18T00:13:07.799Z,1007.87
2018-09-18T00:14:07.787Z,1007.90
2018-09-18T00:15:07.766Z,1007.88
2018-09-18T00:16:07.748Z,1007.89
2018-09-18T00:17:07.734Z,1007.87
2018-09-18T00:18:07.716Z,1007.86
2018-09-18T00:19:07.702Z,1007.85
2018-09-18T00:20:07.690Z,1007.80
2018-09-18T00:21:07.665Z,1007.82
2018-09-18T00:22:07.648Z,1007.83
2018-09-18T00:23:07.634Z,1007.78
2018-09-18T00:24:07.617Z,1007.82
2018-09-18T00:25:07.601Z,1007.79
2018-09-18T00:26:07.584Z,1007.75
2018-09-18T00:27:07.571Z,1007.74
2018-09-18T00:28:07.550Z,1007.77
2018-09-18T00:29:07.530Z,1007.74
2018-09-18T00:30:07.517Z,1007.76
2018-09-18T00:31:07.499Z,1007.73
2018-09-18T00:32:07.481Z,1007.72
2018-09-18T00:33:07.481Z,1007.74
2018-09-18T00:34:07.454Z,1007.72
2018-09-18T00:35:07.433Z,1007.70
2018-09-18T00:36:07.418Z,1007.70
2018-09-18T00:37:07.398Z,1007.71
2018-09-18T00:38:07.384Z,1007.70
2018-09-18T00:39:07.368Z,1007.66
2018-09-18T00:40:07.366Z,1007.66
2018-09-18T00:41:07.333Z,1007.68
2018-09-18T00:42:07.316Z,1007.65
2018-09-18T00:43:07.300Z,1007.67
2018-09-18T00:44:07.282Z,1007.64
2018-09-18T00:45:07.269Z,1007.66
2018-09-18T00:46:07.264Z,1007.63
2018-09-18T00:47:07.234Z,1007.62
2018-09-18T00:48:07.215Z,1007.62
2018-09-18T00:49:07.199Z,1007.63
2018-09-18T00:50:07.188Z,1007.59
2018-09-18T00:51:07.165Z,1007.59
2018-09-18T00:52:07.152Z,1007.58
2018-09-18T00:53:07.137Z,1007.60
2018-09-18T00:54:07.115Z,1007.57
2018-09-18T00:55:07.099Z,1007.55
2018-09-18T00:56:07.094Z,1007.57
2018-09-18T00:57:07.062Z,1007.57
2018-09-18T00:58:07.047Z,1007.55
2018-09-18T00:59:07.053Z,1007.60
2018-09-18T01:00:07.015Z,1007.53
2018-09-18T01:01:06.996Z,1007.52
2018-09-18T01:02:06.990Z,1007.52
2018-09-18T01:03:06.971Z,1007.51
2018-09-18T01:04:06.946Z,1007.52
2018-09-18T01:05:06.942Z,1007.51
2018-09-18T01:06:06.927Z,1007.49
2018-09-18T01:07:06.898Z,1007.49
2018-09-18T01:08:06.904Z,1007.46
2018-09-18T01:09:06.863Z,1007.46
2018-09-18T01:10:06.849Z,1007.46
2018-09-18T01:11:06.832Z,1007.45
2018-09-18T01:12:06.824Z,1007.43
2018-09-18T01:13:06.795Z,1007.41
2018-09-18T01:14:06.802Z,1007.42
2018-09-18T01:15:06.762Z,1007.41
2018-09-18T01:16:06.750Z,1007.38
2018-09-18T01:17:06.728Z,1007.39
2018-09-18T01:18:06.718Z,1007.42
2018-09-18T01:19:06.695Z,1007.39
2018-09-18T01:20:06.682Z,1007.37
2018-09-18T01:21:06.659Z,1007.39
2018-09-18T01:22:06.648Z,1007.37
2018-09-18T01:23:06.627Z,1007.33
2018-09-18T01:24:06.610Z,1007.37
2018-09-18T01:25:06.596Z,1007.35
2018-09-18T01:26:06.575Z,1007.33
2018-09-18T01:27:06.565Z,1007.32
2018-09-18T01:28:06.543Z,1007.33
2018-09-18T01:29:06.525Z,1007.30
2018-09-18T01:30:06.512Z,1007.31
2018-09-18T01:31:06.492Z,1007.34
2018-09-18T01:32:06.475Z,1007.32
2018-09-18T01:33:06.461Z,1007.36
2018-09-18T01:34:06.440Z,1007.36
2018-09-18T01:35:06.424Z,1007.36
2018-09-18T01:36:06.409Z,1007.38
2018-09-18T01:37:06.391Z,1007.32
2018-09-18T01:38:06.378Z,1007.34
2018-09-18T01:39:06.358Z,1007.33
2018-09-18T01:40:06.344Z,1007.32
2018-09-18T01:41:06.325Z,1007.33
2018-09-18T01:42:06.314Z,1007.34
2018-09-18T01:43:06.290Z,1007.33
2018-09-18T01:44:06.274Z,1007.29
2018-09-18T01:45:06.256Z,1007.31
2018-09-18T01:46:06.238Z,1007.29
2018-09-18T01:47:06.224Z,1007.32
2018-09-18T01:48:06.203Z,1007.31
2018-09-18T01:49:06.192Z,1007.32
2018-09-18T01:50:06.173Z,1007.29
2018-09-18T01:51:06.161Z,1007.28
2018-09-18T01:52:06.146Z,1007.25
2018-09-18T01:53:06.122Z,1007.26
2018-09-18T01:54:06.107Z,1007.28
2018-09-18T01:55:06.091Z,1007.26
2018-09-18T01:56:06.070Z,1007.23
2018-09-18T01:57:06.053Z,1007.25
2018-09-18T01:58:06.036Z,1007.25
2018-09-18T01:59:06.019Z,1007.26
2018-09-18T02:00:06.002Z,1007.25
2018-09-18T02:01:05.990Z,1007.21
2018-09-18T02:02:05.968Z,1007.18
2018-09-18T02:03:05.960Z,1007.15
2018-09-18T02:04:05.938Z,1007.16
2018-09-18T02:05:05.919Z,1007.13
2018-09-18T02:06:05.911Z,1007.14
2018-09-18T02:07:05.883Z,1007.14
2018-09-18T02:08:05.872Z,1007.12
2018-09-18T02:09:05.849Z,1007.16
2018-09-18T02:10:05.833Z,1007.14
2018-09-18T02:11:05.816Z,1007.15
2018-09-18T02:12:05.805Z,1007.17
2018-09-18T02:13:05.786Z,1007.13
2018-09-18T02:14:05.765Z,1007.11
2018-09-18T02:15:05.748Z,1007.11
2018-09-18T02:16:05.764Z,1007.16
2018-09-18T02:17:05.717Z,1007.17
2018-09-18T02:18:05.697Z,1007.12
2018-09-18T02:19:05.680Z,1007.11
2018-09-18T02:20:05.662Z,1007.12
2018-09-18T02:21:05.657Z,1007.10
2018-09-18T02:22:05.630Z,1007.11
2018-09-18T02:23:05.622Z,1007.09
2018-09-18T02:24:05.594Z,1007.09
2018-09-18T02:25:05.647Z,1007.09
2018-09-18T02:26:05.560Z,1007.09
2018-09-18T02:27:05.549Z,1007.05
2018-09-18T02:28:05.526Z,1007.05
2018-09-18T02:29:05.509Z,1007.05
2018-09-18T02:30:05.495Z,1007.07
2018-09-18T02:31:05.474Z,1007.06
2018-09-18T02:32:05.458Z,1007.06
2018-09-18T02:33:05.440Z,1007.04
2018-09-18T02:34:05.424Z,1007.05
2018-09-18T02:35:05.409Z,1007.08
2018-09-18T02:36:05.389Z,1007.03
2018-09-18T02:37:05.373Z,1006.99
2018-09-18T02:38:05.357Z,1007.00
2018-09-18T02:39:05.340Z,1006.96
2018-09-18T02:40:05.325Z,1006.97
2018-09-18T02:41:05.304Z,1006.97
2018-09-18T02:42:05.288Z,1006.95
2018-09-18T02:43:05.274Z,1006.98
2018-09-18T02:44:05.253Z,1006.98
2018-09-18T02:45:05.236Z,1006.94
2018-09-18T02:46:05.225Z,1006.94
2018-09-18T02:47:05.203Z,1006.96
2018-09-18T02:48:05.185Z,1006.97
2018-09-18T02:49:05.181Z,1006.93
2018-09-18T02:50:05.152Z,1006.91
2018-09-18T02:51:05.144Z,1006.92
2018-09-18T02:52:05.118Z,1006.91
2018-09-18T02:53:05.114Z,1006.93
2018-09-18T02:54:05.085Z,1006.87
2018-09-18T02:55:05.085Z,1006.90
2018-09-18T02:56:05.047Z,1006.90
2018-09-18T02:57:05.032Z,1006.85
2018-09-18T02:58:05.014Z,1006.87
2018-09-18T02:59:04.999Z,1006.87
2018-09-18T03:00:04.981Z,1006.88
2018-09-18T03:01:04.962Z,1006.86
2018-09-18T03:02:04.944Z,1006.87
2018-09-18T03:03:04.934Z,1006.85
2018-09-18T03:04:04.912Z,1006.82
2018-09-18T03:05:04.893Z,1006.81
2018-09-18T03:06:04.876Z,1006.82
2018-09-18T03:07:04.859Z,1006.85
2018-09-18T03:08:04.843Z,1006.80
2018-09-18T03:09:04.826Z,1006.81
2018-09-18T03:10:04.820Z,1006.78
2018-09-18T03:11:04.795Z,1006.77
2018-09-18T03:12:04.773Z,1006.78
2018-09-18T03:13:04.758Z,1006.77
2018-09-18T03:14:04.740Z,1006.78
2018-09-18T03:15:04.723Z,1006.77
2018-09-18T03:16:04.706Z,1006.77
2018-09-18T03:17:04.699Z,1006.78
2018-09-18T03:18:04.676Z,1006.80
2018-09-18T03:19:04.654Z,1006.73
2018-09-18T03:20:04.635Z,1006.75
2018-09-18T03:21:04.746Z,1006.70
2018-09-18T03:22:04.604Z,1006.74
2018-09-18T03:23:04.586Z,1006.73
2018-09-18T03:24:04.571Z,1006.75
2018-09-18T03:25:04.550Z,1006.74
2018-09-18T03:26:04.533Z,1006.70
2018-09-18T03:27:04.522Z,1006.70
2018-09-18T03:28:04.499Z,1006.71
2018-09-18T03:29:04.482Z,1006.75
2018-09-18T03:30:04.464Z,1006.69
2018-09-18T03:31:04.454Z,1006.73
2018-09-18T03:32:04.434Z,1006.69
2018-09-18T03:33:04.412Z,1006.69
2018-09-18T03:34:04.400Z,1006.66
2018-09-18T03:35:04.384Z,1006.64
2018-09-18T03:36:04.361Z,1006.60
2018-09-18T03:37:04.345Z,1006.61
2018-09-18T03:38:04.327Z,1006.61
2018-09-18T03:39:04.313Z,1006.58
2018-09-18T03:40:04.304Z,1006.61
2018-09-18T03:41:04.277Z,1006.57
2018-09-18T03:42:04.260Z,1006.55
2018-09-18T03:43:04.244Z,1006.55
2018-09-18T03:44:04.224Z,1006.53
2018-09-18T03:45:04.206Z,1006.52
2018-09-18T03:46:04.189Z,1006.51
2018-09-18T03:47:04.176Z,1006.49
2018-09-18T03:48:04.155Z,1006.48
2018-09-18T03:49:04.140Z,1006.47
2018-09-18T03:50:04.188Z,1006.46
2018-09-18T03:51:04.205Z,1006.46
2018-09-18T03:52:04.085Z,1006.52
2018-09-18T03:53:04.221Z,1006.50
2018-09-18T03:54:04.053Z,1006.45
2018-09-18T03:55:04.041Z,1006.48
2018-09-18T03:56:04.020Z,1006.49
2018-09-18T03:57:04.006Z,1006.47
2018-09-18T03:58:03.983Z,1006.49
2018-09-18T03:59:03.965Z,1006.49
2018-09-18T04:00:03.949Z,1006.49
2018-09-18T04:01:03.932Z,1006.52
2018-09-18T04:02:03.917Z,1006.53
2018-09-18T04:03:03.898Z,1006.47
2018-09-18T04:04:03.879Z,1006.50
2018-09-18T04:05:03.862Z,1006.46
2018-09-18T04:06:03.846Z,1006.45
2018-09-18T04:07:03.848Z,1006.44
2018-09-18T04:08:03.809Z,1006.44
2018-09-18T04:09:03.857Z,1006.45
2018-09-18T04:10:03.868Z,1006.40
2018-09-18T04:11:03.759Z,1006.39
2018-09-18T04:12:03.744Z,1006.37
2018-09-18T04:13:03.728Z,1006.38
2018-09-18T04:14:03.708Z,1006.38
2018-09-18T04:15:03.692Z,1006.39
2018-09-18T04:16:03.675Z,1006.34
2018-09-18T04:17:03.656Z,1006.34
2018-09-18T04:18:03.641Z,1006.34
2018-09-18T04:19:03.621Z,1006.31
2018-09-18T04:20:03.600Z,1006.31
2018-09-18T04:21:03.586Z,1006.32
2018-09-18T04:22:03.568Z,1006.27
2018-09-18T04:23:03.557Z,1006.34
2018-09-18T04:24:03.535Z,1006.29
2018-09-18T04:25:03.524Z,1006.29
2018-09-18T04:26:03.499Z,1006.29
2018-09-18T04:27:03.483Z,1006.30
2018-09-18T04:28:03.462Z,1006.31
2018-09-18T04:29:03.450Z,1006.27
2018-09-18T04:30:03.431Z,1006.29
2018-09-18T04:31:03.430Z,1006.26
2018-09-18T04:32:03.397Z,1006.26
2018-09-18T04:33:03.379Z,1006.27
2018-09-18T04:34:03.360Z,1006.24
2018-09-18T04:35:03.343Z,1006.25
2018-09-18T04:36:03.325Z,1006.24
2018-09-18T04:37:03.310Z,1006.25
2018-09-18T04:38:03.296Z,1006.23
2018-09-18T04:39:03.278Z,1006.19
2018-09-18T04:40:03.257Z,1006.18
2018-09-18T04:41:03.238Z,1006.17
2018-09-18T04:42:03.227Z,1006.16
2018-09-18T04:43:03.204Z,1006.16
2018-09-18T04:44:03.186Z,1006.17
2018-09-18T04:45:03.170Z,1006.16
2018-09-18T04:46:03.271Z,1006.17
2018-09-18T04:47:03.135Z,1006.16
2018-09-18T04:48:03.117Z,1006.15
2018-09-18T04:49:03.102Z,1006.16
2018-09-18T04:50:03.083Z,1006.22
2018-09-18T04:51:03.065Z,1006.20
2018-09-18T04:52:03.051Z,1006.18
2018-09-18T04:53:03.035Z,1006.19
2018-09-18T04:54:03.013Z,1006.20
2018-09-18T04:55:03.024Z,1006.20
2018-09-18T04:56:02.982Z,1006.16
2018-09-18T04:57:02.961Z,1006.13
2018-09-18T04:58:02.946Z,1006.16
2018-09-18T04:59:02.940Z,1006.16
2018-09-18T05:00:02.907Z,1006.12
2018-09-18T05:01:02.891Z,1006.11
2018-09-18T05:02:02.921Z,1006.11
2018-09-18T05:03:02.866Z,1006.13
2018-09-18T05:04:02.847Z,1006.10
2018-09-18T05:05:02.827Z,1006.07
2018-09-18T05:06:02.805Z,1006.09
2018-09-18T05:07:02.789Z,1006.08
2018-09-18T05:08:02.769Z,1006.07
2018-09-18T05:09:02.755Z,1006.08
2018-09-18T05:10:02.737Z,1006.08
2018-09-18T05:11:02.821Z,1006.06
2018-09-18T05:12:02.701Z,1006.07
2018-09-18T05:13:02.685Z,1006.05
2018-09-18T05:14:02.693Z,1006.07
2018-09-18T05:15:02.655Z,1006.05
2018-09-18T05:16:02.630Z,1006.02
2018-09-18T05:17:02.614Z,1006.01
2018-09-18T05:18:02.602Z,1006.01
2018-09-18T05:19:02.587Z,1005.98
2018-09-18T05:20:02.570Z,1006.02
2018-09-18T05:21:02.544Z,1006.04
2018-09-18T05:22:02.526Z,1006.01
2018-09-18T05:23:02.510Z,1006.01
2018-09-18T05:24:02.499Z,1006.00
2018-09-18T05:25:02.474Z,1006.04
2018-09-18T05:26:02.457Z,1006.02
2018-09-18T05:27:02.446Z,1005.99
2018-09-18T05:28:02.421Z,1006.02
2018-09-18T05:29:02.405Z,1005.99
2018-09-18T05:30:02.388Z,1006.02
2018-09-18T05:31:02.394Z,1005.98
2018-09-18T05:32:02.352Z,1005.96
2018-09-18T05:33:02.336Z,1005.97
2018-09-18T05:34:02.320Z,1005.97
2018-09-18T05:35:02.300Z,1005.98
2018-09-18T05:36:02.283Z,1006.00
2018-09-18T05:37:02.264Z,1006.03
2018-09-18T05:38:02.249Z,1006.00
2018-09-18T05:39:02.231Z,1006.01
2018-09-18T05:40:02.213Z,1006.01
2018-09-18T05:41:02.239Z,1005.96
2018-09-18T05:42:02.262Z,1005.99
2018-09-18T05:43:02.163Z,1005.99
2018-09-18T05:44:02.146Z,1005.97
2018-09-18T05:45:02.129Z,1005.98
2018-09-18T05:46:02.109Z,1005.99
2018-09-18T05:47:02.093Z,1005.99
2018-09-18T05:48:02.125Z,1005.98
2018-09-18T05:49:02.056Z,1005.98
2018-09-18T05:50:02.039Z,1005.98
2018-09-18T05:51:02.029Z,1005.99
2018-09-18T05:52:02.006Z,1005.99
2018-09-18T05:53:01.993Z,1005.99
2018-09-18T05:54:01.971Z,1006.01
2018-09-18T05:55:01.963Z,1006.01
2018-09-18T05:56:01.935Z,1006.02
2018-09-18T05:57:01.915Z,1006.01
2018-09-18T05:58:01.905Z,1006.04
2018-09-18T05:59:01.887Z,1006.02
2018-09-18T06:00:01.865Z,1006.00
2018-09-18T06:01:01.846Z,1006.02
2018-09-18T06:02:01.831Z,1006.02
2018-09-18T06:03:01.813Z,1005.99
2018-09-18T06:04:01.801Z,1005.98
2018-09-18T06:05:01.781Z,1005.93
2018-09-18T06:06:01.772Z,1005.94
2018-09-18T06:07:01.744Z,1005.94
2018-09-18T06:08:01.731Z,1005.95
2018-09-18T06:09:01.764Z,1005.93
2018-09-18T06:10:01.692Z,1005.93
2018-09-18T06:11:01.674Z,1005.95
2018-09-18T06:12:01.654Z,1005.94
2018-09-18T06:13:01.641Z,1005.91
2018-09-18T06:14:01.620Z,1005.92
2018-09-18T06:15:01.610Z,1005.95
2018-09-18T06:16:01.589Z,1005.93
2018-09-18T06:17:01.569Z,1005.96
2018-09-18T06:18:01.553Z,1005.89
2018-09-18T06:19:01.600Z,1005.89
2018-09-18T06:20:01.518Z,1005.86
2018-09-18T06:21:01.499Z,1005.86
2018-09-18T06:22:01.482Z,1005.90
2018-09-18T06:23:01.465Z,1005.84
2018-09-18T06:24:01.449Z,1005.88
2018-09-18T06:25:01.430Z,1005.89
2018-09-18T06:26:01.416Z,1005.89
2018-09-18T06:27:01.400Z,1005.89
2018-09-18T06:28:01.377Z,1005.90
2018-09-18T06:29:01.360Z,1005.86
2018-09-18T06:30:01.357Z,1005.90
2018-09-18T06:31:01.335Z,1005.85
2018-09-18T06:32:01.308Z,1005.86
2018-09-18T06:33:01.290Z,1005.85
2018-09-18T06:34:01.274Z,1005.87
2018-09-18T06:35:01.260Z,1005.84
2018-09-18T06:36:01.242Z,1005.89
2018-09-18T06:37:01.349Z,1005.89
2018-09-18T06:38:01.208Z,1005.91
2018-09-18T06:39:01.196Z,1005.87
2018-09-18T06:40:01.177Z,1005.88
2018-09-18T06:41:01.156Z,1005.88
2018-09-18T06:42:01.136Z,1005.89
2018-09-18T06:43:01.120Z,1005.89
2018-09-18T06:44:01.105Z,1005.93
2018-09-18T06:45:01.087Z,1005.91
2018-09-18T06:46:01.073Z,1005.92
2018-09-18T06:47:01.052Z,1005.94
2018-09-18T06:48:01.132Z,1005.90
2018-09-18T06:49:01.017Z,1005.95
2018-09-18T06:50:01.000Z,1005.99
2018-09-18T06:51:00.985Z,1005.98
2018-09-18T06:52:00.966Z,1006.01
2018-09-18T06:53:00.948Z,1006.03
2018-09-18T06:54:00.941Z,1005.97
2018-09-18T06:55:00.919Z,1006.00
2018-09-18T06:56:00.904Z,1006.01
2018-09-18T06:57:00.885Z,1005.99
2018-09-18T06:58:00.871Z,1005.98
2018-09-18T06:59:00.847Z,1005.98
2018-09-18T07:00:00.830Z,1006.00
2018-09-18T07:01:00.811Z,1005.98
2018-09-18T07:02:00.795Z,1005.92
2018-09-18T07:03:00.782Z,1005.97
2018-09-18T07:04:00.766Z,1005.95
2018-09-18T07:05:00.750Z,1005.91
2018-09-18T07:06:00.734Z,1005.91
2018-09-18T07:07:00.715Z,1005.95
2018-09-18T07:08:00.698Z,1005.96
2018-09-18T07:09:00.683Z,1005.97
2018-09-18T07:10:00.660Z,1005.98
2018-09-18T07:11:00.652Z,1005.95
2018-09-18T07:12:00.637Z,1005.94
2018-09-18T07:13:00.607Z,1005.91
2018-09-18T07:14:00.604Z,1005.90
2018-09-18T07:15:00.581Z,1005.94
2018-09-18T07:16:00.558Z,1005.92
2018-09-18T07:17:00.540Z,1005.87
2018-09-18T07:18:00.606Z,1005.92
2018-09-18T07:19:00.507Z,1005.91
2018-09-18T07:20:00.489Z,1005.88
2018-09-18T07:21:00.478Z,1005.86
2018-09-18T07:22:00.484Z,1005.89
2018-09-18T07:23:00.440Z,1005.88
2018-09-18T07:24:00.422Z,1005.90
2018-09-18T07:25:00.553Z,1005.90
2018-09-18T07:26:00.389Z,1005.93
2018-09-18T07:27:00.372Z,1005.92
2018-09-18T07:28:00.362Z,1005.92
2018-09-18T07:29:00.337Z,1005.95
2018-09-18T07:30:00.321Z,1005.93
2018-09-18T07:31:00.307Z,1005.91
2018-09-18T07:32:00.290Z,1005.92
2018-09-18T07:33:00.271Z,1005.93
2018-09-18T07:34:00.256Z,1005.91
2018-09-18T07:35:00.239Z,1005.89
2018-09-18T07:36:00.222Z,1005.89
2018-09-18T07:37:00.203Z,1005.95
2018-09-18T07:38:00.190Z,1005.91
2018-09-18T07:39:00.171Z,1005.95
2018-09-18T07:40:00.155Z,1005.96
2018-09-18T07:41:00.197Z,1005.95
2018-09-18T07:42:00.120Z,1005.93
2018-09-18T07:43:00.128Z,1005.92
2018-09-18T07:44:00.087Z,1005.93
2018-09-18T07:45:00.077Z,1005.86
2018-09-18T07:46:00.055Z,1005.93
2018-09-18T07:47:00.039Z,1005.90
2018-09-18T07:48:00.022Z,1005.92
2018-09-18T07:49:00.004Z,1005.89
2018-09-18T07:49:59.987Z,1005.90
2018-09-18T07:50:59.972Z,1005.90
2018-09-18T07:51:59.957Z,1005.89
2018-09-18T07:52:59.939Z,1005.92
2018-09-18T07:53:59.928Z,1005.85
2018-09-18T07:54:59.926Z,1005.87
2018-09-18T07:55:59.888Z,1005.84
2018-09-18T07:56:59.870Z,1005.82
2018-09-18T07:57:59.859Z,1005.83
2018-09-18T07:58:59.839Z,1005.80
2018-09-18T07:59:59.827Z,1005.86
2018-09-18T08:00:59.807Z,1005.83
2018-09-18T08:01:59.790Z,1005.85
2018-09-18T08:02:59.814Z,1005.79
2018-09-18T08:03:59.755Z,1005.80
2018-09-18T08:04:59.748Z,1005.80
2018-09-18T08:05:59.725Z,1005.77
2018-09-18T08:06:59.709Z,1005.74
2018-09-18T08:07:59.692Z,1005.70
2018-09-18T08:08:59.676Z,1005.69
2018-09-18T08:09:59.659Z,1005.71
2018-09-18T08:10:59.729Z,1005.72
2018-09-18T08:11:59.625Z,1005.75
2018-09-18T08:12:59.614Z,1005.66
2018-09-18T08:13:59.594Z,1005.67
2018-09-18T08:14:59.576Z,1005.66
2018-09-18T08:15:59.585Z,1005.65
2018-09-18T08:16:59.543Z,1005.61
2018-09-18T08:17:59.527Z,1005.62
2018-09-18T08:18:59.647Z,1005.59
2018-09-18T08:19:59.501Z,1005.60
2018-09-18T08:20:59.482Z,1005.61
2018-09-18T08:21:59.476Z,1005.59
2018-09-18T08:22:59.447Z,1005.59
2018-09-18T08:23:59.439Z,1005.59
2018-09-18T08:24:59.434Z,1005.58
2018-09-18T08:25:59.400Z,1005.57
2018-09-18T08:26:59.385Z,1005.59
2018-09-18T08:27:59.365Z,1005.60
2018-09-18T08:28:59.369Z,1005.58
2018-09-18T08:29:59.369Z,1005.62
2018-09-18T08:30:59.318Z,1005.67
2018-09-18T08:31:59.303Z,1005.63
2018-09-18T08:32:59.340Z,1005.62
2018-09-18T08:33:59.269Z,1005.64
2018-09-18T08:34:59.256Z,1005.63
2018-09-18T08:35:59.240Z,1005.64
2018-09-18T08:36:59.224Z,1005.61
2018-09-18T08:37:59.206Z,1005.59
2018-09-18T08:38:59.196Z,1005.63
2018-09-18T08:39:59.284Z,1005.66
2018-09-18T08:40:59.158Z,1005.63
2018-09-18T08:41:59.140Z,1005.61
2018-09-18T08:42:59.126Z,1005.62
2018-09-18T08:43:59.137Z,1005.59
2018-09-18T08:44:59.123Z,1005.60
2018-09-18T08:45:59.079Z,1005.60
2018-09-18T08:46:59.063Z,1005.59
2018-09-18T08:47:59.057Z,1005.57
2018-09-18T08:48:59.030Z,1005.64
2018-09-18T08:49:59.083Z,1005.64
2018-09-18T08:50:59.028Z,1005.65
2018-09-18T08:51:59.032Z,1005.65
2018-09-18T08:52:58.974Z,1005.65
2018-09-18T08:53:58.953Z,1005.65
2018-09-18T08:54:58.934Z,1005.63
2018-09-18T08:55:58.921Z,1005.62
2018-09-18T08:56:58.926Z,1005.65
2018-09-18T08:57:58.896Z,1005.58
2018-09-18T08:58:58.877Z,1005.57
2018-09-18T08:59:58.858Z,1005.54
2018-09-18T09:00:58.840Z,1005.52
2018-09-18T09:01:58.849Z,1005.52
2018-09-18T09:02:58.811Z,1005.47
2018-09-18T09:03:58.885Z,1005.43
2018-09-18T09:04:58.806Z,1005.44
2018-09-18T09:05:58.843Z,1005.40
2018-09-18T09:06:58.748Z,1005.43
2018-09-18T09:07:58.851Z,1005.46
2018-09-18T09:08:58.972Z,1005.47
2018-09-18T09:09:58.700Z,1005.43
2018-09-18T09:10:58.747Z,1005.44
2018-09-18T09:11:58.704Z,1005.46
2018-09-18T09:12:58.652Z,1005.45
2018-09-18T09:13:58.670Z,1005.39
2018-09-18T09:14:58.676Z,1005.41
2018-09-18T09:15:58.607Z,1005.41
2018-09-18T09:16:58.591Z,1005.38
2018-09-18T09:17:58.656Z,1005.42
2018-09-18T09:18:58.559Z,1005.45
2018-09-18T09:19:58.544Z,1005.43
2018-09-18T09:20:58.596Z,1005.40
2018-09-18T09:21:58.632Z,1005.41
2018-09-18T09:22:58.578Z,1005.40
2018-09-18T09:23:58.495Z,1005.42
2018-09-18T09:24:58.480Z,1005.39
2018-09-18T09:25:58.453Z,1005.42
2018-09-18T09:26:58.507Z,1005.46
2018-09-18T09:27:58.502Z,1005.43
2018-09-18T09:28:58.426Z,1005.51
2018-09-18T09:29:58.442Z,1005.50
2018-09-18T09:30:58.387Z,1005.52
2018-09-18T09:31:58.415Z,1005.51
2018-09-18T09:32:58.356Z,1005.45
2018-09-18T09:33:58.357Z,1005.50
2018-09-18T09:34:58.314Z,1005.50
2018-09-18T09:35:58.309Z,1005.47
2018-09-18T09:36:58.332Z,1005.47
2018-09-18T09:37:58.274Z,1005.46
2018-09-18T09:38:58.264Z,1005.43
2018-09-18T09:39:58.236Z,1005.45
2018-09-18T09:40:58.225Z,1005.39
2018-09-18T09:41:58.208Z,1005.41
2018-09-18T09:42:58.194Z,1005.39
2018-09-18T09:43:58.182Z,1005.40
2018-09-18T09:44:58.210Z,1005.40
2018-09-18T09:45:58.148Z,1005.39
2018-09-18T09:46:58.140Z,1005.40
2018-09-18T09:47:58.121Z,1005.41
2018-09-18T09:48:58.104Z,1005.42
2018-09-18T09:49:58.088Z,1005.43
2018-09-18T09:50:58.076Z,1005.38
2018-09-18T09:51:58.056Z,1005.40
2018-09-18T09:52:58.058Z,1005.36
2018-09-18T09:53:58.026Z,1005.38
2018-09-18T09:54:58.013Z,1005.32
2018-09-18T09:55:58.004Z,1005.30
2018-09-18T09:56:57.992Z,1005.26
2018-09-18T09:57:57.970Z,1005.26
2018-09-18T09:58:57.966Z,1005.29
2018-09-18T09:59:57.937Z,1005.30
2018-09-18T10:00:57.931Z,1005.30
2018-09-18T10:01:57.909Z,1005.28
2018-09-18T10:02:57.914Z,1005.23
2018-09-18T10:03:57.881Z,1005.18
2018-09-18T10:04:57.863Z,1005.19
2018-09-18T10:05:57.849Z,1005.20
2018-09-18T10:06:57.835Z,1005.17
2018-09-18T10:07:57.819Z,1005.22
2018-09-18T10:08:57.808Z,1005.18
2018-09-18T10:09:57.792Z,1005.18
2018-09-18T10:10:57.900Z,1005.15
2018-09-18T10:11:57.760Z,1005.15
2018-09-18T10:12:57.748Z,1005.17
2018-09-18T10:13:57.732Z,1005.17
2018-09-18T10:14:57.728Z,1005.19
2018-09-18T10:15:57.700Z,1005.27
2018-09-18T10:16:57.688Z,1005.16
2018-09-18T10:17:57.836Z,1005.15
2018-09-18T10:18:57.665Z,1005.16
2018-09-18T10:19:57.645Z,1005.14
2018-09-18T10:20:57.632Z,1005.18
2018-09-18T10:21:57.614Z,1005.19
2018-09-18T10:22:57.601Z,1005.18
2018-09-18T10:23:57.595Z,1005.18
2018-09-18T10:24:57.604Z,1005.17
2018-09-18T10:25:57.590Z,1005.15
2018-09-18T10:26:57.775Z,1005.19
2018-09-18T10:27:57.542Z,1005.25
2018-09-18T10:28:57.519Z,1005.17
2018-09-18T10:29:57.524Z,1005.14
2018-09-18T10:30:57.493Z,1005.16
2018-09-18T10:31:57.470Z,1005.18
2018-09-18T10:32:57.456Z,1005.27
2018-09-18T10:33:57.442Z,1005.21
2018-09-18T10:34:57.441Z,1005.39
2018-09-18T10:35:57.425Z,1005.22
2018-09-18T10:36:57.403Z,1005.36
2018-09-18T10:37:57.393Z,1005.25
2018-09-18T10:38:57.399Z,1005.15
2018-09-18T10:39:57.374Z,1005.16
2018-09-18T10:40:57.407Z,1005.24
2018-09-18T10:41:57.436Z,1005.30
2018-09-18T10:42:57.366Z,1005.11
2018-09-18T10:43:57.337Z,1005.23
2018-09-18T10:44:57.290Z,1005.23
2018-09-18T10:45:57.272Z,1005.25
2018-09-18T10:46:57.260Z,1005.23
2018-09-18T10:47:57.241Z,1005.27
2018-09-18T10:48:57.238Z,1005.23
2018-09-18T10:49:57.214Z,1005.22
2018-09-18T10:50:57.207Z,1005.22
2018-09-18T10:51:57.187Z,1005.25
2018-09-18T10:52:57.177Z,1005.23
2018-09-18T10:53:57.160Z,1005.29
2018-09-18T10:54:57.145Z,1005.26
2018-09-18T10:55:57.135Z,1005.26
2018-09-18T10:56:57.117Z,1005.25
2018-09-18T10:57:57.102Z,1005.23
2018-09-18T10:58:57.089Z,1005.31
2018-09-18T10:59:57.075Z,1005.28
2018-09-18T11:00:57.085Z,1005.34
2018-09-18T11:01:57.080Z,1005.29
2018-09-18T11:02:57.058Z,1005.24
2018-09-18T11:03:57.056Z,1005.25
2018-09-18T11:04:57.006Z,1005.20
2018-09-18T11:05:56.994Z,1005.27
2018-09-18T11:06:57.062Z,1005.31
2018-09-18T11:07:57.068Z,1005.32
2018-09-18T11:08:56.963Z,1005.26
2018-09-18T11:09:56.945Z,1005.26
2018-09-18T11:10:56.972Z,1005.25
2018-09-18T11:11:56.913Z,1005.25
2018-09-18T11:12:56.898Z,1005.16
2018-09-18T11:13:56.893Z,1005.19
2018-09-18T11:14:56.955Z,1005.14
2018-09-18T11:15:56.926Z,1005.11
2018-09-18T11:16:56.902Z,1005.17
2018-09-18T11:17:56.880Z,1005.16
2018-09-18T11:18:56.831Z,1005.10
2018-09-18T11:19:56.870Z,1005.07
2018-09-18T11:20:56.874Z,1005.09
2018-09-18T11:21:56.793Z,1005.14
2018-09-18T11:22:56.765Z,1005.09
2018-09-18T11:23:56.802Z,1005.10
2018-09-18T11:24:56.785Z,1005.08
2018-09-18T11:25:56.809Z,1005.11
2018-09-18T11:26:56.726Z,1005.14
2018-09-18T11:27:56.694Z,1005.11
2018-09-18T11:28:56.699Z,1005.16
2018-09-18T11:29:56.660Z,1005.06
2018-09-18T11:30:56.685Z,1004.99
2018-09-18T11:31:56.636Z,1005.00
2018-09-18T11:32:56.702Z,1005.13
2018-09-18T11:33:56.607Z,1005.10
2018-09-18T11:34:56.612Z,1005.03
2018-09-18T11:35:56.580Z,1005.05
2018-09-18T11:36:56.570Z,1005.05
2018-09-18T11:37:56.563Z,1004.94
2018-09-18T11:38:56.541Z,1004.88
2018-09-18T11:39:56.528Z,1004.91
2018-09-18T11:40:56.513Z,1004.89
2018-09-18T11:41:56.501Z,1004.94
2018-09-18T11:42:56.488Z,1005.02
2018-09-18T11:43:56.471Z,1004.94
2018-09-18T11:44:56.462Z,1004.89
2018-09-18T11:45:56.668Z,1004.86
2018-09-18T11:46:56.438Z,1004.89
2018-09-18T11:47:56.424Z,1004.85
2018-09-18T11:48:56.405Z,1004.89
2018-09-18T11:49:56.396Z,1004.87
2018-09-18T11:50:56.383Z,1004.86
2018-09-18T11:51:56.373Z,1004.81
2018-09-18T11:52:56.424Z,1004.89
2018-09-18T11:53:56.338Z,1004.84
2018-09-18T11:54:56.325Z,1004.86
2018-09-18T11:55:56.328Z,1004.94
2018-09-18T11:56:56.348Z,1004.94
2018-09-18T11:57:56.298Z,1004.90
2018-09-18T11:58:56.278Z,1005.00
2018-09-18T11:59:56.258Z,1004.96
2018-09-18T12:00:56.246Z,1004.87
2018-09-18T12:01:56.231Z,1004.91
2018-09-18T12:02:56.253Z,1004.86
2018-09-18T12:03:56.221Z,1004.89
2018-09-18T12:04:56.203Z,1004.86